Time;durP1;ratioP1;P1;durP2;ratioP2;P2;SDS_P1;SDS_P2;PMS_P1;PMS_P2;Temp;Humidity;BMP_temperature;BMP_pressure;BME280_temperature;BME280_humidity;BME280_pressure;Samples;Min_cycle;Max_cycle;Signal;HPM_P1;HPM_P2
2023/07/19 00:01:54;;;;;;;;;;;21.80;98.10;;;;;;7601934;19;20051;-77
2023/07/19 00:04:26;;;;;;;;;;;21.80;98.60;;;;;;7602074;19;19931;-79
2023/07/19 00:06:58;;;;;;;;;;;21.70;98.60;;;;;;7594291;19;19927;-77
2023/07/19 00:09:32;;;;;;;;;;;21.60;98.80;;;;;;7580423;19;19926;-78
2023/07/19 00:12:06;;;;;;;;;;;21.70;99.00;;;;;;7579798;19;19922;-77
2023/07/19 00:14:38;;;;;;;;;;;21.80;99.00;;;;;;7587653;19;19970;-78
2023/07/19 00:17:10;;;;;;;;;;;21.80;98.90;;;;;;7578396;19;19927;-77
2023/07/19 00:19:42;;;;;;;;;;;21.80;99.00;;;;;;7572923;19;19927;-78
2023/07/19 00:22:14;;;;;;;;;;;21.70;99.30;;;;;;7584784;19;19929;-78
2023/07/19 00:24:46;;;;;;;;;;;21.70;99.40;;;;;;7580732;19;19922;-79
2023/07/19 00:27:19;;;;;;;;;;;21.60;99.60;;;;;;7574434;19;20887;-79
2023/07/19 00:29:52;;;;;;;;;;;21.50;99.90;;;;;;7596697;19;19915;-78
2023/07/19 00:32:24;;;;;;;;;;;21.50;99.90;;;;;;7562468;19;19922;-78
2023/07/19 00:34:56;;;;;;;;;;;21.50;99.90;;;;;;7584920;19;19929;-78
2023/07/19 00:37:29;;;;;;;;;;;21.40;99.90;;;;;;7582386;19;20302;-78
2023/07/19 00:40:02;;;;;;;;;;;21.40;99.90;;;;;;7580462;19;19952;-79
2023/07/19 00:42:35;;;;;;;;;;;21.40;99.90;;;;;;7588598;19;19919;-78
2023/07/19 00:45:07;;;;;;;;;;;21.40;99.90;;;;;;7591753;19;19948;-78
2023/07/19 00:47:40;;;;;;;;;;;21.40;99.90;;;;;;7572064;19;19918;-77
2023/07/19 00:50:12;;;;;;;;;;;21.40;99.90;;;;;;7585162;19;19922;-77
2023/07/19 00:52:45;;;;;;;;;;;21.40;99.90;;;;;;7580958;19;19933;-77
2023/07/19 00:55:18;;;;;;;;;;;21.30;99.90;;;;;;7579568;19;19915;-78
2023/07/19 00:57:50;;;;;;;;;;;21.30;99.90;;;;;;7592464;19;20387;-77
2023/07/19 01:00:25;;;;;;;;;;;21.10;99.90;;;;;;7576798;19;20732;-78
2023/07/19 01:02:58;;;;;;;;;;;21.10;99.90;;;;;;7571782;19;19922;-77
2023/07/19 01:05:30;;;;;;;;;;;21.10;99.90;;;;;;7578525;19;20307;-78
2023/07/19 01:08:02;;;;;;;;;;;21.10;99.90;;;;;;7581332;19;19929;-77
2023/07/19 01:10:34;;;;;;;;;;;20.90;99.90;;;;;;7575424;19;19914;-78
2023/07/19 01:13:08;;;;;;;;;;;20.90;99.90;;;;;;7580623;19;19939;-78
2023/07/19 01:15:40;;;;;;;;;;;21.00;99.90;;;;;;7582952;19;19925;-78
2023/07/19 01:18:13;;;;;;;;;;;20.90;99.90;;;;;;7589317;19;19921;-77
2023/07/19 01:20:45;;;;;;;;;;;20.80;99.90;;;;;;7577575;19;19930;-78
2023/07/19 01:23:18;;;;;;;;;;;20.90;99.90;;;;;;7571006;19;19982;-78
2023/07/19 01:25:53;;;;;;;;;;;20.80;99.90;;;;;;7585259;19;20318;-78
2023/07/19 01:28:25;;;;;;;;;;;20.70;99.90;;;;;;7567046;19;19978;-77
2023/07/19 01:31:01;;;;;;;;;;;20.70;99.90;;;;;;7591118;19;19926;-77
2023/07/19 01:33:33;;;;;;;;;;;20.70;99.90;;;;;;7574056;19;19923;-75
2023/07/19 01:36:09;;;;;;;;;;;20.70;99.90;;;;;;7612345;19;19958;-74
2023/07/19 01:38:43;;;;;;;;;;;20.60;99.90;;;;;;7605600;19;20353;-74
2023/07/19 01:41:19;;;;;;;;;;;20.50;99.90;;;;;;7598830;19;19925;-74
2023/07/19 01:43:53;;;;;;;;;;;20.60;99.90;;;;;;7608842;19;19926;-75
2023/07/19 01:46:26;;;;;;;;;;;20.50;99.90;;;;;;7591779;19;19926;-77
2023/07/19 01:48:58;;;;;;;;;;;20.50;99.90;;;;;;7609881;19;20350;-75
2023/07/19 01:51:32;;;;;;;;;;;20.50;99.90;;;;;;7608834;19;20333;-77
2023/07/19 01:54:05;;;;;;;;;;;20.40;99.90;;;;;;7611475;19;19935;-74
2023/07/19 01:56:41;;;;;;;;;;;20.40;99.90;;;;;;7601626;19;19947;-77
2023/07/19 01:59:14;;;;;;;;;;;20.40;99.90;;;;;;7614563;19;19922;-77
2023/07/19 02:01:47;;;;;;;;;;;20.40;99.90;;;;;;7601850;19;19976;-78
2023/07/19 02:04:19;;;;;;;;;;;20.40;99.90;;;;;;7591993;19;19922;-77
2023/07/19 02:06:52;;;;;;;;;;;20.30;99.90;;;;;;7604364;19;20325;-77
2023/07/19 02:09:29;;;;;;;;;;;20.40;99.90;;;;;;7609867;19;19911;-73
2023/07/19 02:12:04;;;;;;;;;;;20.30;99.90;;;;;;7609313;19;19946;-75
2023/07/19 02:14:40;;;;;;;;;;;20.30;99.90;;;;;;7613043;19;19965;-74
2023/07/19 02:17:13;;;;;;;;;;;20.20;99.90;;;;;;7615153;19;19914;-78
2023/07/19 02:19:46;;;;;;;;;;;20.20;99.90;;;;;;7602559;19;19927;-77
2023/07/19 02:22:18;;;;;;;;;;;20.30;99.90;;;;;;7613465;19;19915;-78
2023/07/19 02:24:50;;;;;;;;;;;20.30;99.90;;;;;;7600345;19;19926;-77
2023/07/19 02:27:23;;;;;;;;;;;20.20;99.90;;;;;;7589589;19;19922;-80
2023/07/19 02:29:55;;;;;;;;;;;20.20;99.90;;;;;;7601951;19;20955;-77
2023/07/19 02:32:32;;;;;;;;;;;20.20;99.90;;;;;;7595505;19;19955;-78
2023/07/19 02:35:05;;;;;;;;;;;20.10;99.90;;;;;;7622075;19;19919;-77
2023/07/19 02:37:38;;;;;;;;;;;20.10;99.90;;;;;;7620572;19;20250;-74
2023/07/19 02:40:10;;;;;;;;;;;20.00;99.90;;;;;;7617728;19;21065;-77
2023/07/19 02:42:42;;;;;;;;;;;20.10;99.90;;;;;;7614579;19;19933;-73
2023/07/19 02:45:14;;;;;;;;;;;20.00;99.90;;;;;;7616473;19;19946;-77
2023/07/19 02:47:46;;;;;;;;;;;20.00;99.90;;;;;;7610315;19;21012;-74
2023/07/19 02:50:21;;;;;;;;;;;19.90;99.90;;;;;;7616993;19;19948;-79
2023/07/19 02:52:57;;;;;;;;;;;19.80;99.90;;;;;;7613137;19;19923;-78
2023/07/19 02:55:29;;;;;;;;;;;19.90;99.90;;;;;;7601839;19;19919;-74
2023/07/19 02:58:01;;;;;;;;;;;19.90;99.90;;;;;;7614581;19;19919;-75
2023/07/19 03:00:33;;;;;;;;;;;20.00;99.90;;;;;;7573014;19;19935;-75
2023/07/19 03:03:06;;;;;;;;;;;19.90;99.90;;;;;;7590809;19;19919;-74
2023/07/19 03:05:40;;;;;;;;;;;19.90;99.90;;;;;;7579725;19;20373;-75
2023/07/19 03:08:12;;;;;;;;;;;19.80;99.90;;;;;;7605588;19;19919;-74
2023/07/19 03:10:44;;;;;;;;;;;19.80;99.90;;;;;;7585364;19;19939;-74
2023/07/19 03:13:16;;;;;;;;;;;19.70;99.90;;;;;;7590211;19;19930;-74
2023/07/19 03:15:50;;;;;;;;;;;19.70;99.90;;;;;;7586614;19;19922;-74
2023/07/19 03:18:24;;;;;;;;;;;19.70;99.90;;;;;;7608268;19;19915;-74
2023/07/19 03:20:58;;;;;;;;;;;19.70;99.90;;;;;;7619408;19;19923;-76
2023/07/19 03:23:30;;;;;;;;;;;19.60;99.90;;;;;;7610082;19;19926;-77
2023/07/19 03:26:03;;;;;;;;;;;19.60;99.90;;;;;;7617324;19;19915;-77
2023/07/19 03:28:36;;;;;;;;;;;19.50;99.90;;;;;;7583030;19;19991;-74
2023/07/19 03:31:11;;;;;;;;;;;19.40;99.90;;;;;;7576953;19;20837;-74
2023/07/19 03:33:44;;;;;;;;;;;19.50;99.90;;;;;;7590846;19;19923;-74
2023/07/19 03:36:16;;;;;;;;;;;19.50;99.90;;;;;;7600216;19;19923;-76
2023/07/19 03:38:48;;;;;;;;;;;19.40;99.90;;;;;;7608373;19;21412;-75
2023/07/19 03:41:21;;;;;;;;;;;19.30;99.90;;;;;;7605938;19;19923;-75
2023/07/19 03:43:54;;;;;;;;;;;19.40;99.90;;;;;;7606047;19;19946;-78
2023/07/19 03:46:26;;;;;;;;;;;19.30;99.90;;;;;;7597777;19;19919;-77
2023/07/19 03:49:03;;;;;;;;;;;19.30;99.90;;;;;;7559977;19;19930;-76
2023/07/19 03:51:39;;;;;;;;;;;19.30;99.90;;;;;;7558680;19;20404;-73
2023/07/19 03:54:12;;;;;;;;;;;19.20;99.90;;;;;;7559601;19;19919;-76
2023/07/19 03:56:46;;;;;;;;;;;19.10;99.90;;;;;;7594645;19;19910;-74
2023/07/19 03:59:20;;;;;;;;;;;19.00;99.90;;;;;;7596305;19;19919;-80
2023/07/19 04:01:55;;;;;;;;;;;19.20;99.90;;;;;;7597474;19;20696;-79
2023/07/19 04:04:30;;;;;;;;;;;19.20;99.90;;;;;;7611462;19;19931;-78
2023/07/19 04:07:06;;;;;;;;;;;19.30;99.90;;;;;;7591374;19;19978;-80
2023/07/19 04:09:40;;;;;;;;;;;19.30;99.90;;;;;;7579471;19;20451;-77
2023/07/19 04:12:15;;;;;;;;;;;19.30;99.90;;;;;;7599169;19;21329;-78
2023/07/19 04:14:48;;;;;;;;;;;19.30;99.90;;;;;;7601915;19;19919;-75
2023/07/19 04:17:28;;;;;;;;;;;19.30;99.90;;;;;;7583674;19;19943;-74
2023/07/19 04:20:03;;;;;;;;;;;19.30;99.90;;;;;;7598771;19;19918;-78
2023/07/19 04:22:37;;;;;;;;;;;19.30;99.90;;;;;;7602325;19;19942;-79
2023/07/19 04:25:10;;;;;;;;;;;19.30;99.90;;;;;;7593381;19;19919;-76
2023/07/19 04:27:42;;;;;;;;;;;19.30;99.90;;;;;;7597992;19;19919;-79
2023/07/19 04:30:16;;;;;;;;;;;19.40;99.90;;;;;;7588448;19;19934;-75
2023/07/19 04:32:54;;;;;;;;;;;19.40;99.90;;;;;;7597038;19;19930;-80
2023/07/19 04:35:28;;;;;;;;;;;19.40;99.90;;;;;;7593298;19;19913;-79
2023/07/19 04:38:03;;;;;;;;;;;19.50;99.90;;;;;;7576539;19;19925;-80
2023/07/19 04:40:36;;;;;;;;;;;19.50;99.90;;;;;;7582640;19;21104;-79
2023/07/19 04:43:12;;;;;;;;;;;19.60;99.90;;;;;;7592725;19;19922;-75
2023/07/19 04:45:45;;;;;;;;;;;19.70;99.90;;;;;;7560792;19;19926;-75
2023/07/19 04:48:19;;;;;;;;;;;19.80;99.90;;;;;;7543063;19;19926;-75
2023/07/19 04:50:52;;;;;;;;;;;20.00;99.90;;;;;;7538622;19;19936;-76
2023/07/19 04:53:25;;;;;;;;;;;20.10;99.90;;;;;;7559097;19;19926;-75
2023/07/19 04:56:00;;;;;;;;;;;20.20;99.90;;;;;;7560477;19;21610;-78
2023/07/19 04:58:38;;;;;;;;;;;20.30;99.90;;;;;;7559254;19;21136;-76
2023/07/19 05:01:11;;;;;;;;;;;20.30;99.90;;;;;;7578687;19;19946;-75
2023/07/19 05:03:46;;;;;;;;;;;20.40;99.90;;;;;;7591681;19;19978;-77
2023/07/19 05:06:18;;;;;;;;;;;20.40;99.90;;;;;;7584871;19;19910;-73
2023/07/19 05:08:50;;;;;;;;;;;20.50;99.90;;;;;;7554043;19;20194;-74
2023/07/19 05:11:25;;;;;;;;;;;20.60;99.90;;;;;;7549764;19;19915;-77
2023/07/19 05:13:59;;;;;;;;;;;20.60;99.90;;;;;;7547991;19;19929;-73
2023/07/19 05:16:33;;;;;;;;;;;20.80;99.90;;;;;;7538370;19;22045;-79
2023/07/19 05:19:06;;;;;;;;;;;20.80;99.90;;;;;;7569164;19;19907;-79
2023/07/19 05:21:40;;;;;;;;;;;21.00;99.90;;;;;;7569129;19;19915;-78
2023/07/19 05:24:19;;;;;;;;;;;;;;;;;;7561603;19;19932;-75
2023/07/19 05:26:53;;;;;;;;;;;;;;;;;;7559520;19;19915;-77
2023/07/19 05:29:30;;;;;;;;;;;;;;;;;;7601840;19;19918;-76
2023/07/19 05:32:03;;;;;;;;;;;;;;;;;;7596332;19;19927;-80
2023/07/19 05:34:35;;;;;;;;;;;21.00;99.90;;;;;;7618397;19;19919;-75
2023/07/19 05:37:08;;;;;;;;;;;21.50;99.90;;;;;;7613927;19;19927;-76
2023/07/19 05:39:43;;;;;;;;;;;21.50;99.90;;;;;;7606041;19;19923;-76
2023/07/19 05:42:17;;;;;;;;;;;21.40;99.90;;;;;;7574545;19;19911;-76
2023/07/19 05:44:49;;;;;;;;;;;21.50;99.90;;;;;;7572554;19;19919;-82
2023/07/19 05:47:21;;;;;;;;;;;21.50;99.90;;;;;;7559365;19;20918;-81
2023/07/19 05:49:54;;;;;;;;;;;;;;;;;;7590430;19;19921;-80
2023/07/19 05:52:28;;;;;;;;;;;;;;;;;;7592933;19;19922;-81
2023/07/19 05:55:01;;;;;;;;;;;;;;;;;;7606907;19;19927;-75
2023/07/19 05:57:39;;;;;;;;;;;;;;;;;;7604990;19;19949;-76
2023/07/19 06:00:18;;;;;;;;;;;21.50;99.90;;;;;;7577900;19;20552;-82
2023/07/19 06:02:53;;;;;;;;;;;;;;;;;;7594105;19;19938;-81
2023/07/19 06:05:27;;;;;;;;;;;22.00;99.90;;;;;;7615530;19;20478;-75
2023/07/19 06:08:00;;;;;;;;;;;22.30;99.90;;;;;;7614605;19;20320;-82
2023/07/19 06:10:38;;;;;;;;;;;22.30;99.90;;;;;;7614673;19;19931;-76
2023/07/19 06:13:14;;;;;;;;;;;22.30;99.90;;;;;;7589801;19;20010;-76
2023/07/19 06:15:46;;;;;;;;;;;22.30;99.90;;;;;;7592309;19;19998;-76
2023/07/19 06:18:18;;;;;;;;;;;22.40;99.90;;;;;;7603554;19;19935;-81
2023/07/19 06:20:51;;;;;;;;;;;22.50;99.90;;;;;;7575395;19;19922;-81
2023/07/19 06:23:28;;;;;;;;;;;22.50;99.90;;;;;;7613684;19;19934;-77
2023/07/19 06:26:00;;;;;;;;;;;22.60;99.90;;;;;;7616248;19;19923;-76
2023/07/19 06:28:37;;;;;;;;;;;22.60;99.90;;;;;;7609821;19;19933;-76
2023/07/19 06:31:11;;;;;;;;;;;22.50;99.90;;;;;;7598893;19;20374;-76
2023/07/19 06:33:44;;;;;;;;;;;22.70;99.90;;;;;;7608085;19;19925;-83
2023/07/19 06:36:17;;;;;;;;;;;22.80;99.90;;;;;;7616132;19;19907;-81
2023/07/19 06:38:50;;;;;;;;;;;22.90;99.90;;;;;;7608291;19;19923;-75
2023/07/19 06:41:22;;;;;;;;;;;22.90;99.90;;;;;;7614614;19;20423;-77
2023/07/19 06:43:54;;;;;;;;;;;23.10;99.90;;;;;;7609424;19;19962;-75
2023/07/19 06:46:26;;;;;;;;;;;23.10;99.90;;;;;;7599318;19;19915;-76
2023/07/19 06:49:02;;;;;;;;;;;23.20;99.90;;;;;;7593015;19;19931;-77
2023/07/19 06:51:38;;;;;;;;;;;23.30;99.90;;;;;;7606198;19;19917;-83
2023/07/19 06:54:10;;;;;;;;;;;23.50;99.90;;;;;;7609010;19;21199;-80
2023/07/19 06:56:48;;;;;;;;;;;23.60;99.90;;;;;;7618027;19;19942;-76
2023/07/19 06:59:21;;;;;;;;;;;23.70;99.90;;;;;;7617310;19;19926;-75
2023/07/19 07:01:54;;;;;;;;;;;23.70;99.90;;;;;;7611125;19;19924;-81
2023/07/19 07:04:26;;;;;;;;;;;23.70;99.90;;;;;;7619490;19;19915;-83
2023/07/19 07:06:58;;;;;;;;;;;23.70;99.90;;;;;;7615878;19;20907;-80
2023/07/19 07:09:30;;;;;;;;;;;23.80;99.90;;;;;;7610587;19;19918;-84
2023/07/19 07:12:03;;;;;;;;;;;23.80;99.90;;;;;;7599917;19;20989;-76
2023/07/19 07:14:37;;;;;;;;;;;23.70;99.90;;;;;;7585599;19;19915;-76
2023/07/19 07:17:09;;;;;;;;;;;23.60;99.90;;;;;;7592200;19;19926;-76
2023/07/19 07:19:44;;;;;;;;;;;23.60;99.90;;;;;;7594424;19;21110;-76
2023/07/19 07:22:19;;;;;;;;;;;23.70;99.90;;;;;;7601065;19;20049;-76
2023/07/19 07:24:51;;;;;;;;;;;23.80;99.90;;;;;;7591897;19;22175;-75
2023/07/19 07:27:28;;;;;;;;;;;23.90;99.90;;;;;;7594817;19;19919;-76
2023/07/19 07:30:01;;;;;;;;;;;23.90;99.90;;;;;;7600239;19;19977;-76
2023/07/19 07:32:35;;;;;;;;;;;23.90;99.90;;;;;;7609199;19;19949;-76
2023/07/19 07:35:13;;;;;;;;;;;24.10;99.90;;;;;;7605875;19;19911;-76
2023/07/19 07:37:53;;;;;;;;;;;24.30;99.90;;;;;;7597203;19;20004;-75
2023/07/19 07:40:25;;;;;;;;;;;24.40;99.90;;;;;;7603988;19;19927;-74
2023/07/19 07:42:58;;;;;;;;;;;24.50;99.90;;;;;;7588053;19;19966;-77
2023/07/19 07:45:30;;;;;;;;;;;24.60;99.90;;;;;;7590656;19;19911;-74
2023/07/19 07:48:02;;;;;;;;;;;24.70;99.90;;;;;;7571206;19;19959;-74
2023/07/19 07:50:40;;;;;;;;;;;24.70;99.90;;;;;;7607764;19;19933;-78
2023/07/19 07:53:13;;;;;;;;;;;24.70;99.90;;;;;;7582724;19;19922;-75
2023/07/19 07:55:46;;;;;;;;;;;24.80;99.90;;;;;;7588235;19;19923;-78
2023/07/19 07:58:18;;;;;;;;;;;24.80;99.90;;;;;;7590170;19;20312;-78
2023/07/19 08:00:52;;;;;;;;;;;25.00;99.90;;;;;;7599442;19;19923;-79
2023/07/19 08:03:31;;;;;;;;;;;25.20;99.90;;;;;;7587261;19;19922;-75
2023/07/19 08:06:06;;;;;;;;;;;25.30;99.90;;;;;;7586272;19;20002;-74
2023/07/19 08:08:38;;;;;;;;;;;25.50;99.90;;;;;;7571558;19;19987;-75
2023/07/19 08:11:11;;;;;;;;;;;25.70;99.40;;;;;;7581441;19;19922;-75
2023/07/19 08:13:45;;;;;;;;;;;25.70;99.20;;;;;;7603951;19;19927;-75
2023/07/19 08:16:18;;;;;;;;;;;25.80;97.90;;;;;;7599745;19;19911;-79
2023/07/19 08:18:50;;;;;;;;;;;25.80;97.10;;;;;;7579285;19;19919;-78
2023/07/19 08:21:24;;;;;;;;;;;26.00;96.80;;;;;;7607167;19;19953;-78
2023/07/19 08:24:07;;;;;;;;;;;26.10;96.40;;;;;;7596160;19;19990;-78
2023/07/19 08:26:40;;;;;;;;;;;26.20;96.20;;;;;;7602843;19;19919;-78
2023/07/19 08:29:12;;;;;;;;;;;26.10;96.30;;;;;;7602109;19;20319;-78
2023/07/19 08:31:45;;;;;;;;;;;26.30;96.80;;;;;;7585713;19;20715;-78
2023/07/19 08:34:17;;;;;;;;;;;26.40;96.00;;;;;;7564878;19;19960;-78
2023/07/19 08:36:49;;;;;;;;;;;26.40;95.10;;;;;;7575667;19;19918;-78
2023/07/19 08:39:23;;;;;;;;;;;26.50;94.10;;;;;;7579449;19;19927;-77
2023/07/19 08:41:55;;;;;;;;;;;26.50;94.10;;;;;;7572206;19;19960;-78
2023/07/19 08:44:28;;;;;;;;;;;26.50;93.00;;;;;;7577238;19;22186;-78
2023/07/19 08:47:02;;;;;;;;;;;26.50;91.70;;;;;;7588401;19;20563;-78
2023/07/19 08:49:35;;;;;;;;;;;26.60;93.30;;;;;;7599574;19;20703;-79
2023/07/19 08:52:08;;;;;;;;;;;26.50;90.70;;;;;;7589301;19;20002;-78
2023/07/19 08:54:40;;;;;;;;;;;26.70;91.20;;;;;;7605069;19;19952;-78
2023/07/19 08:57:13;;;;;;;;;;;26.80;88.10;;;;;;7590715;19;20410;-79
2023/07/19 08:59:45;;;;;;;;;;;26.90;90.10;;;;;;7589720;19;20491;-79
2023/07/19 09:02:17;;;;;;;;;;;27.00;87.10;;;;;;7599146;19;21064;-78
2023/07/19 09:05:05;;;;;;;;;;;27.10;87.50;;;;;;7604607;19;19919;-75
2023/07/19 09:07:38;;;;;;;;;;;27.10;86.50;;;;;;7610776;19;19911;-75
2023/07/19 09:10:11;;;;;;;;;;;27.00;85.20;;;;;;7607595;19;19923;-75
2023/07/19 09:12:44;;;;;;;;;;;27.10;84.40;;;;;;7609891;19;19918;-75
2023/07/19 09:15:16;;;;;;;;;;;27.30;85.30;;;;;;7566374;19;19915;-75
2023/07/19 09:17:48;;;;;;;;;;;27.30;83.40;;;;;;7581730;19;19957;-74
2023/07/19 09:20:26;;;;;;;;;;;27.30;84.30;;;;;;7524032;19;20638;-76
2023/07/19 09:22:58;;;;;;;;;;;27.40;84.40;;;;;;7543668;19;19922;-74
2023/07/19 09:25:31;;;;;;;;;;;27.40;83.50;;;;;;7565506;19;19922;-75
2023/07/19 09:28:09;;;;;;;;;;;27.40;81.70;;;;;;7546738;19;19911;-77
2023/07/19 09:30:53;;;;;;;;;;;27.10;80.20;;;;;;7567420;19;19926;-76
2023/07/19 09:33:26;;;;;;;;;;;27.10;80.90;;;;;;7547942;19;19954;-76
2023/07/19 09:35:58;;;;;;;;;;;27.00;80.90;;;;;;7574735;19;20286;-75
2023/07/19 09:38:31;;;;;;;;;;;26.90;81.80;;;;;;7588657;19;20616;-76
2023/07/19 09:41:03;;;;;;;;;;;26.90;84.00;;;;;;7581012;19;19922;-75
2023/07/19 09:43:36;;;;;;;;;;;27.00;84.60;;;;;;7578824;19;19955;-76
2023/07/19 09:46:09;;;;;;;;;;;27.10;81.20;;;;;;7568706;19;20527;-79
2023/07/19 09:48:41;;;;;;;;;;;27.00;79.30;;;;;;7576154;19;19911;-75
2023/07/19 09:51:14;;;;;;;;;;;27.00;80.10;;;;;;7581404;19;19915;-75
2023/07/19 09:53:47;;;;;;;;;;;27.00;79.90;;;;;;7602323;19;19903;-75
2023/07/19 09:56:19;;;;;;;;;;;27.00;79.10;;;;;;7597213;19;20392;-77
2023/07/19 09:58:56;;;;;;;;;;;26.80;77.50;;;;;;7591370;19;20147;-75
2023/07/19 10:01:30;;;;;;;;;;;26.90;79.50;;;;;;7602975;19;19921;-75
2023/07/19 10:04:24;;;;;;;;;;;27.10;80.50;;;;;;7605079;19;20437;-76
2023/07/19 10:07:16;;;;;;;;;;;27.10;76.70;;;;;;7598625;19;19914;-75
2023/07/19 10:10:01;;;;;;;;;;;27.10;78.70;;;;;;7591770;19;19911;-75
2023/07/19 10:12:36;;;;;;;;;;;27.30;77.00;;;;;;7599896;19;19922;-75
2023/07/19 10:15:16;;;;;;;;;;;27.20;75.40;;;;;;7596936;19;19923;-75
2023/07/19 10:17:54;;;;;;;;;;;27.30;75.90;;;;;;7598593;19;19978;-78
2023/07/19 10:20:35;;;;;;;;;;;27.50;74.40;;;;;;7578737;19;19922;-76
2023/07/19 10:23:13;;;;;;;;;;;27.70;74.80;;;;;;7592397;19;19938;-78
2023/07/19 10:25:47;;;;;;;;;;;27.90;76.30;;;;;;7598390;19;19914;-75
2023/07/19 10:28:26;;;;;;;;;;;28.30;74.00;;;;;;7594586;19;20622;-76
2023/07/19 10:30:59;;;;;;;;;;;28.70;72.60;;;;;;7595298;19;20529;-76
2023/07/19 10:33:55;;;;;;;;;;;28.60;72.20;;;;;;7566271;19;19937;-76
2023/07/19 10:36:32;;;;;;;;;;;29.10;72.00;;;;;;7574632;19;20029;-76
2023/07/19 10:39:06;;;;;;;;;;;29.60;72.30;;;;;;7598525;19;19926;-76
2023/07/19 10:41:38;;;;;;;;;;;30.00;73.40;;;;;;7551588;19;19979;-76
2023/07/19 10:44:11;;;;;;;;;;;30.40;70.40;;;;;;7567322;19;19918;-75
2023/07/19 10:46:44;;;;;;;;;;;30.40;70.70;;;;;;7573769;19;20559;-76
2023/07/19 10:49:16;;;;;;;;;;;29.80;70.10;;;;;;7563560;19;20693;-76
2023/07/19 10:51:55;;;;;;;;;;;29.20;70.10;;;;;;7569495;19;19930;-77
2023/07/19 10:54:28;;;;;;;;;;;28.80;71.40;;;;;;7571684;19;19922;-76
2023/07/19 10:57:13;;;;;;;;;;;28.40;69.90;;;;;;7605129;19;19918;-76
2023/07/19 10:59:49;;;;;;;;;;;28.30;71.30;;;;;;7580987;19;20305;-75
2023/07/19 11:02:25;;;;;;;;;;;28.30;70.90;;;;;;7571939;19;19918;-75
2023/07/19 11:04:58;;;;;;;;;;;28.30;72.40;;;;;;7567850;19;19948;-75
2023/07/19 11:07:30;;;;;;;;;;;28.30;73.40;;;;;;7558322;19;19918;-77
2023/07/19 11:10:08;;;;;;;;;;;28.40;70.60;;;;;;7600871;19;20028;-75
2023/07/19 11:12:42;;;;;;;;;;;29.00;70.70;;;;;;7609210;19;19915;-75
2023/07/19 11:15:14;;;;;;;;;;;29.30;68.50;;;;;;7597328;19;19915;-75
2023/07/19 11:17:48;;;;;;;;;;;29.70;67.70;;;;;;7584931;19;19925;-76
2023/07/19 11:20:26;;;;;;;;;;;29.80;67.10;;;;;;7579153;19;19926;-76
2023/07/19 11:23:05;;;;;;;;;;;29.50;67.00;;;;;;7581928;19;20687;-76
2023/07/19 11:25:38;;;;;;;;;;;29.30;67.30;;;;;;7576002;19;19929;-76
2023/07/19 11:28:10;;;;;;;;;;;29.10;67.50;;;;;;7590212;19;19927;-76
2023/07/19 11:30:42;;;;;;;;;;;29.00;68.00;;;;;;7588202;19;19923;-76
2023/07/19 11:33:16;;;;;;;;;;;29.10;66.60;;;;;;7592914;19;19923;-76
2023/07/19 11:35:50;;;;;;;;;;;29.40;66.90;;;;;;7603619;19;19934;-76
2023/07/19 11:38:23;;;;;;;;;;;29.80;67.30;;;;;;7602730;19;19922;-76
2023/07/19 11:40:57;;;;;;;;;;;29.80;66.20;;;;;;7603182;19;19930;-76
2023/07/19 11:43:29;;;;;;;;;;;30.00;67.00;;;;;;7598724;19;20270;-76
2023/07/19 11:46:01;;;;;;;;;;;29.40;65.40;;;;;;7576854;19;19923;-76
2023/07/19 11:48:33;;;;;;;;;;;29.10;67.10;;;;;;7597640;19;19922;-76
2023/07/19 11:51:08;;;;;;;;;;;28.90;67.30;;;;;;7570335;19;19914;-79
2023/07/19 11:53:40;;;;;;;;;;;28.80;66.40;;;;;;7615131;19;19933;-75
2023/07/19 11:56:15;;;;;;;;;;;28.60;66.30;;;;;;7565889;19;19931;-77
2023/07/19 11:58:48;;;;;;;;;;;28.50;66.20;;;;;;7581292;19;20652;-78
2023/07/19 12:01:21;;;;;;;;;;;28.80;68.30;;;;;;7593082;19;19930;-77
2023/07/19 12:03:54;;;;;;;;;;;29.10;68.50;;;;;;7599605;19;20351;-78
2023/07/19 12:06:26;;;;;;;;;;;29.60;66.50;;;;;;7591736;19;21106;-79
2023/07/19 12:08:59;;;;;;;;;;;29.60;66.50;;;;;;7588159;19;19918;-76
2023/07/19 12:11:31;;;;;;;;;;;29.50;65.70;;;;;;7585805;19;19957;-75
2023/07/19 12:14:03;;;;;;;;;;;29.40;65.40;;;;;;7580753;19;20405;-76
2023/07/19 12:16:36;;;;;;;;;;;30.00;68.00;;;;;;7590076;19;19986;-76
2023/07/19 12:19:14;;;;;;;;;;;30.30;64.20;;;;;;7611842;19;19926;-77
2023/07/19 12:21:50;;;;;;;;;;;30.50;65.30;;;;;;7574620;19;20308;-75
2023/07/19 12:24:23;;;;;;;;;;;30.80;62.70;;;;;;7599827;19;20918;-76
2023/07/19 12:26:57;;;;;;;;;;;31.20;64.10;;;;;;7608865;19;19923;-76
2023/07/19 12:29:30;;;;;;;;;;;31.30;63.50;;;;;;7619076;19;19914;-76
2023/07/19 12:32:16;;;;;;;;;;;31.20;61.50;;;;;;7580652;19;20201;-75
2023/07/19 12:34:49;;;;;;;;;;;31.30;63.50;;;;;;7612554;19;19947;-74
2023/07/19 12:37:23;;;;;;;;;;;31.70;62.40;;;;;;7614609;19;21180;-74
2023/07/19 12:39:55;;;;;;;;;;;32.20;63.30;;;;;;7617249;19;19927;-75
2023/07/19 12:42:29;;;;;;;;;;;32.00;60.20;;;;;;7575731;19;19919;-78
2023/07/19 12:45:01;;;;;;;;;;;32.30;59.90;;;;;;7592628;19;20706;-76
2023/07/19 12:47:36;;;;;;;;;;;32.00;60.10;;;;;;7595872;19;19933;-76
2023/07/19 12:50:09;;;;;;;;;;;31.30;60.20;;;;;;7599958;19;20641;-77
2023/07/19 12:52:44;;;;;;;;;;;31.20;60.90;;;;;;7606952;19;19927;-75
2023/07/19 12:55:27;;;;;;;;;;;31.10;59.50;;;;;;7605579;19;19907;-77
2023/07/19 12:57:59;;;;;;;;;;;31.00;61.00;;;;;;7589686;19;20205;-76
2023/07/19 13:00:32;;;;;;;;;;;31.40;60.20;;;;;;7585477;19;20186;-73
2023/07/19 13:03:05;;;;;;;;;;;31.80;61.60;;;;;;7581550;19;19943;-76
2023/07/19 13:05:37;;;;;;;;;;;32.10;62.10;;;;;;7602830;19;19919;-78
2023/07/19 13:08:10;;;;;;;;;;;32.60;60.30;;;;;;7582941;19;20434;-77
2023/07/19 13:10:42;;;;;;;;;;;32.30;58.20;;;;;;7568134;19;20525;-78
2023/07/19 13:13:15;;;;;;;;;;;32.10;59.10;;;;;;7599892;19;19919;-76
2023/07/19 13:15:47;;;;;;;;;;;32.10;58.20;;;;;;7592379;19;22041;-77
2023/07/19 13:18:20;;;;;;;;;;;31.90;59.30;;;;;;7583735;19;20492;-77
2023/07/19 13:20:53;;;;;;;;;;;32.20;59.00;;;;;;7584304;19;19968;-76
2023/07/19 13:23:29;;;;;;;;;;;32.10;60.10;;;;;;7589225;19;19919;-76
2023/07/19 13:26:02;;;;;;;;;;;31.50;57.80;;;;;;7607881;19;19958;-75
2023/07/19 13:28:34;;;;;;;;;;;31.20;60.30;;;;;;7583378;19;19923;-77
2023/07/19 13:31:07;;;;;;;;;;;31.30;59.10;;;;;;7600313;19;20194;-77
2023/07/19 13:33:40;;;;;;;;;;;31.20;59.60;;;;;;7608732;19;21208;-79
2023/07/19 13:36:14;;;;;;;;;;;31.00;58.80;;;;;;7619624;19;20470;-78
2023/07/19 13:38:50;;;;;;;;;;;31.00;57.90;;;;;;7613903;19;19923;-75
2023/07/19 13:41:22;;;;;;;;;;;31.60;57.90;;;;;;7609875;19;19930;-76
2023/07/19 13:43:57;;;;;;;;;;;32.00;57.90;;;;;;7605577;19;20519;-77
2023/07/19 13:46:30;;;;;;;;;;;32.40;56.40;;;;;;7582589;19;20522;-78
2023/07/19 13:49:06;;;;;;;;;;;32.70;57.70;;;;;;7621015;19;19922;-76
2023/07/19 13:51:39;;;;;;;;;;;32.70;55.80;;;;;;7622397;19;19942;-79
2023/07/19 13:54:11;;;;;;;;;;;32.90;56.60;;;;;;7617761;19;19922;-77
2023/07/19 13:56:44;;;;;;;;;;;32.60;55.50;;;;;;7602797;19;20785;-76
2023/07/19 13:59:16;;;;;;;;;;;32.90;55.20;;;;;;7623779;19;19926;-78
2023/07/19 14:01:49;;;;;;;;;;;33.20;54.70;;;;;;7577741;19;19911;-75
2023/07/19 14:04:29;;;;;;;;;;;33.20;53.90;;;;;;7543210;19;19919;-75
2023/07/19 14:07:05;;;;;;;;;;;32.90;54.00;;;;;;7553703;19;20566;-75
2023/07/19 14:09:37;;;;;;;;;;;32.30;53.50;;;;;;7552143;19;19927;-77
2023/07/19 14:12:14;;;;;;;;;;;32.00;56.20;;;;;;7556951;19;19945;-79
2023/07/19 14:14:50;;;;;;;;;;;32.40;55.20;;;;;;7547977;19;19915;-78
2023/07/19 14:17:25;;;;;;;;;;;32.10;54.60;;;;;;7566474;19;19925;-79
2023/07/19 14:19:58;;;;;;;;;;;32.00;55.40;;;;;;7567865;19;19925;-74
2023/07/19 14:22:31;;;;;;;;;;;32.10;54.10;;;;;;7602945;19;19922;-78
2023/07/19 14:25:05;;;;;;;;;;;31.40;54.30;;;;;;7616519;19;20002;-76
2023/07/19 14:27:38;;;;;;;;;;;31.30;56.10;;;;;;7603733;19;19911;-74
2023/07/19 14:30:10;;;;;;;;;;;30.90;56.10;;;;;;7608364;19;19954;-74
2023/07/19 14:32:43;;;;;;;;;;;30.80;56.80;;;;;;7609394;19;19944;-78
2023/07/19 14:35:18;;;;;;;;;;;31.00;55.80;;;;;;7603598;19;19929;-77
2023/07/19 14:37:53;;;;;;;;;;;31.20;57.90;;;;;;7596198;19;19921;-75
2023/07/19 14:40:26;;;;;;;;;;;31.40;55.30;;;;;;7606481;19;19923;-72
2023/07/19 14:42:59;;;;;;;;;;;32.10;55.50;;;;;;7608750;19;20321;-77
2023/07/19 14:45:34;;;;;;;;;;;32.40;54.90;;;;;;7606981;19;19929;-74
2023/07/19 14:48:08;;;;;;;;;;;32.60;54.50;;;;;;7590046;19;19918;-75
2023/07/19 14:50:41;;;;;;;;;;;32.30;54.10;;;;;;7566205;19;19939;-77
2023/07/19 14:53:13;;;;;;;;;;;32.30;54.40;;;;;;7612003;19;19933;-75
2023/07/19 14:55:46;;;;;;;;;;;32.00;54.20;;;;;;7604308;19;19929;-74
2023/07/19 14:58:19;;;;;;;;;;;31.70;55.20;;;;;;7604673;19;19950;-78
2023/07/19 15:00:51;;;;;;;;;;;31.50;55.90;;;;;;7606597;19;19914;-75